createdAt,value
2023-01-04T00:04:31.076Z,4.31
2023-01-04T00:09:40.616Z,4.29
2023-01-04T00:14:50.441Z,4.28
2023-01-04T00:20:00.007Z,4.27
2023-01-04T00:25:11.520Z,4.25
2023-01-04T00:30:21.763Z,4.20
2023-01-04T00:35:45.401Z,4.16
2023-01-04T00:40:56.041Z,4.08
2023-01-04T00:46:11.922Z,3.92
2023-01-04T00:51:21.791Z,3.76
2023-01-04T00:56:34.156Z,3.64
2023-01-04T01:01:45.231Z,3.53
2023-01-04T01:06:56.162Z,3.45
2023-01-04T01:12:05.952Z,3.40
2023-01-04T01:17:15.746Z,3.37
2023-01-04T01:22:25.435Z,3.38
2023-01-04T01:27:35.225Z,3.41
2023-01-04T01:32:44.776Z,3.45
2023-01-04T01:37:54.421Z,3.48
2023-01-04T01:43:03.993Z,3.52
2023-01-04T01:48:23.437Z,3.55
2023-01-04T01:53:38.528Z,3.56
2023-01-04T01:58:55.142Z,3.52
2023-01-04T02:04:06.719Z,3.45
2023-01-04T02:09:17.505Z,3.35
2023-01-04T02:14:31.005Z,3.20
2023-01-04T02:20:21.483Z,3.09
2023-01-04T02:26:09.877Z,3.03
2023-01-04T02:31:36.629Z,2.99
2023-01-04T02:36:56.229Z,2.99
2023-01-04T02:42:20.737Z,2.97
2023-01-04T02:47:52.722Z,2.91
2023-01-04T02:53:05.964Z,2.81
2023-01-04T02:58:34.180Z,2.77
2023-01-04T03:04:17.200Z,2.72
2023-01-04T03:09:35.843Z,2.67
2023-01-04T03:14:52.993Z,2.62
2023-01-04T03:20:03.719Z,2.61
2023-01-04T03:25:35.378Z,2.63
2023-01-04T03:31:10.958Z,2.54
2023-01-04T03:36:34.530Z,2.51
2023-01-04T03:42:13.690Z,2.49
2023-01-04T03:47:53.236Z,2.48
2023-01-04T03:53:04.173Z,2.38
2023-01-04T03:58:15.077Z,2.40
2023-01-04T04:03:24.804Z,2.30
2023-01-04T04:08:34.839Z,2.24
2023-01-04T04:13:44.619Z,2.23
2023-01-04T04:18:54.544Z,2.19
2023-01-04T04:24:04.219Z,2.02
2023-01-04T04:29:13.949Z,1.96
2023-01-04T04:34:23.576Z,1.98
2023-01-04T04:39:33.218Z,2.05
2023-01-04T04:44:42.977Z,2.12
2023-01-04T04:49:52.545Z,2.15
2023-01-04T04:55:02.223Z,2.15
2023-01-04T05:00:15.624Z,2.12
2023-01-04T05:05:25.262Z,2.11
2023-01-04T05:10:34.911Z,2.05
2023-01-04T05:15:47.970Z,2.02
2023-01-04T05:20:57.960Z,1.93
2023-01-04T05:26:08.001Z,1.84
2023-01-04T05:31:17.792Z,1.76
2023-01-04T05:36:28.013Z,1.77
2023-01-04T05:41:55.257Z,1.81
2023-01-04T05:47:09.581Z,1.81
2023-01-04T05:52:23.791Z,1.80
2023-01-04T05:57:33.548Z,1.82
2023-01-04T06:02:44.193Z,1.74
2023-01-04T06:07:54.720Z,1.66
2023-01-04T06:13:04.542Z,1.59
2023-01-04T06:18:14.821Z,1.56
2023-01-04T06:23:24.552Z,1.60
2023-01-04T06:28:38.701Z,1.69
2023-01-04T06:33:50.336Z,1.76
2023-01-04T06:39:02.104Z,1.81
2023-01-04T06:44:12.383Z,1.80
2023-01-04T06:49:22.139Z,1.86
2023-01-04T06:54:34.154Z,1.85
2023-01-04T06:59:43.885Z,1.84
2023-01-04T07:04:53.919Z,1.81
2023-01-04T07:10:09.197Z,1.73
2023-01-04T07:15:38.130Z,1.76
2023-01-04T07:20:49.688Z,1.93
2023-01-04T07:26:04.593Z,2.05
2023-01-04T07:31:14.368Z,2.08
2023-01-04T07:36:24.462Z,1.97
2023-01-04T07:41:35.656Z,2.01
2023-01-04T07:46:46.073Z,2.06
2023-01-04T07:51:56.616Z,2.28
2023-01-04T07:57:06.230Z,2.47
2023-01-04T08:02:17.215Z,2.48
2023-01-04T08:07:26.963Z,2.50
2023-01-04T08:12:36.536Z,2.48
2023-01-04T08:17:46.311Z,2.40
2023-01-04T08:22:56.956Z,2.49
2023-01-04T08:28:07.257Z,2.61
2023-01-04T08:33:20.845Z,2.77
2023-01-04T08:38:58.772Z,2.91
2023-01-04T08:44:00.861Z,2.96
2023-01-04T08:49:11.191Z,3.11
2023-01-04T08:54:23.376Z,3.20
2023-01-04T08:59:33.678Z,3.21
2023-01-04T09:04:43.465Z,3.33
2023-01-04T09:09:53.457Z,3.52
2023-01-04T09:15:03.311Z,3.74
2023-01-04T09:20:14.475Z,3.88
2023-01-04T09:25:24.635Z,3.97
2023-01-04T09:30:34.460Z,4.03
2023-01-04T09:35:44.353Z,4.14
2023-01-04T09:41:08.478Z,4.20
2023-01-04T09:46:31.103Z,4.31
2023-01-04T09:51:46.819Z,4.32
2023-01-04T09:57:00.707Z,4.37
2023-01-04T10:02:23.252Z,4.50
2023-01-04T10:07:35.978Z,4.73
2023-01-04T10:13:00.129Z,4.86
2023-01-04T10:24:26.413Z,4.95
2023-01-04T10:29:57.354Z,4.90
2023-01-04T10:35:20.400Z,4.87
2023-01-04T10:40:33.158Z,4.93
2023-01-04T10:45:51.822Z,4.99
2023-01-04T10:51:10.508Z,5.11
2023-01-04T10:56:27.712Z,5.31
2023-01-04T11:01:45.631Z,5.45
2023-01-04T11:07:04.572Z,5.59
2023-01-04T11:12:19.426Z,5.74
2023-01-04T11:17:30.179Z,5.84
2023-01-04T11:22:48.452Z,5.88
2023-01-04T11:28:04.282Z,5.88
2023-01-04T11:33:21.099Z,5.85
2023-01-04T11:38:33.053Z,5.83
2023-01-04T11:43:57.966Z,5.80
2023-01-04T11:49:20.108Z,5.75
2023-01-04T11:54:29.967Z,5.69
2023-01-04T11:59:39.861Z,5.68
2023-01-04T12:04:49.900Z,5.69
2023-01-04T12:10:00.770Z,5.69
2023-01-04T12:15:23.393Z,5.72
2023-01-04T12:20:35.196Z,5.74
2023-01-04T12:25:51.490Z,5.75
2023-01-04T12:31:32.696Z,5.72
